Terminal Aerodrome Forecast
Issued by NWS Charleston, WV

Current Version | Previous Version | Graphics & Text | Print | Product List | Glossary On
Versions: 1 2 3 4 5 6 7 8 9 10 11 12 13 14 15 16 17 18 19 20 21 22 23 24 25 26 27 28
000
FTUS41 KRLX 232300
TAFCRW
TAF
KCRW 232337Z 2400/2424 VRB03KT P6SM BKN040
     FM240500 00000KT 5SM SHRA BR OVC040
     FM241200 00000KT 6SM SHRA BR OVC035
     FM241400 16006KT P6SM BKN035
     FM241700 17010G19KT P6SM BKN040
     FM242000 18012G18KT 3SM SHRA BR VCTS BKN040CB
     FM242300 22013G20KT P6SM SHRA OVC035=

USA.gov is the U.S. government's official web portal to all federal, state and local government web resources and services.